createdAt,value
2023-02-02T09:34:10.142Z,99616.00
2023-02-02T09:36:40.095Z,99621.00
2023-02-02T09:43:52.378Z,99622.00
2023-02-02T09:47:16.005Z,99622.00
2023-02-02T09:50:44.031Z,99633.00
2023-02-02T09:53:55.278Z,99641.00
2023-02-02T09:56:43.588Z,99632.00
2023-02-02T09:59:47.640Z,99625.00
2023-02-02T10:02:42.134Z,99641.00
2023-02-02T10:05:25.408Z,99645.00
2023-02-02T10:08:02.265Z,99645.00
2023-02-02T10:10:41.652Z,99662.00
2023-02-02T10:13:43.733Z,99667.00
2023-02-02T10:16:19.427Z,99676.00
2023-02-02T10:19:06.067Z,99686.00
2023-02-02T10:22:21.121Z,99676.00
2023-02-02T10:24:48.607Z,99687.00
2023-02-02T10:27:29.537Z,99691.00
2023-02-02T10:30:02.187Z,99686.00
2023-02-02T10:32:50.719Z,99683.00
2023-02-02T10:36:21.650Z,99685.00
2023-02-02T10:39:23.965Z,99675.00
2023-02-02T10:43:04.625Z,99667.00
2023-02-02T10:45:32.322Z,99675.00
2023-02-02T10:48:00.185Z,99666.00
2023-02-02T10:50:28.174Z,99671.00
2023-02-02T10:53:03.299Z,99674.00
2023-02-02T10:55:49.850Z,99668.00
2023-02-02T10:59:17.842Z,99686.00
2023-02-02T11:01:45.881Z,99675.00
2023-02-02T11:04:31.776Z,99684.00
2023-02-02T11:07:01.451Z,99679.00
2023-02-02T11:09:38.449Z,99666.00
2023-02-02T11:12:37.491Z,99668.00
2023-02-02T11:15:30.783Z,99664.00
2023-02-02T11:18:27.263Z,99648.00
2023-02-02T11:20:55.243Z,99663.00
2023-02-02T11:23:25.155Z,99664.00
2023-02-02T11:26:02.205Z,99673.00
2023-02-02T11:28:35.693Z,99662.00
2023-02-02T11:31:03.752Z,99661.00
2023-02-02T11:33:36.556Z,99662.00
2023-02-02T11:36:22.129Z,99654.00
2023-02-02T11:39:19.188Z,99659.00
2023-02-02T11:41:46.522Z,99665.00
2023-02-02T11:44:29.208Z,99666.00
2023-02-02T11:46:57.431Z,99655.00
2023-02-02T11:49:25.641Z,99655.00
2023-02-02T11:52:06.720Z,99640.00
2023-02-02T11:54:38.957Z,99635.00
2023-02-02T11:57:10.108Z,99625.00
2023-02-02T11:59:44.963Z,99636.00
2023-02-02T12:02:31.573Z,99628.00
2023-02-02T12:05:14.664Z,99629.00
2023-02-02T12:07:44.473Z,99627.00
2023-02-02T12:10:27.121Z,99636.00
2023-02-02T12:13:29.982Z,99629.00
2023-02-02T12:16:37.003Z,99632.00
2023-02-02T12:20:08.448Z,99639.00
2023-02-02T12:22:56.878Z,99629.00
2023-02-02T12:26:22.625Z,99625.00
2023-02-02T12:29:18.737Z,99629.00
2023-02-02T12:32:46.605Z,99632.00
2023-02-02T12:36:30.358Z,99624.00
2023-02-02T12:39:52.551Z,99630.00
2023-02-02T12:43:17.005Z,99632.00
2023-02-02T12:46:29.793Z,99637.00
2023-02-02T12:49:52.014Z,99639.00
2023-02-02T12:53:07.272Z,99641.00
2023-02-02T12:56:29.664Z,99640.00
2023-02-02T12:59:48.852Z,99636.00
2023-02-02T13:02:59.395Z,99638.00
2023-02-02T13:06:28.534Z,99633.00
2023-02-02T13:09:27.376Z,99636.00
2023-02-02T13:12:10.340Z,99635.00
2023-02-02T13:15:02.626Z,99628.00
2023-02-02T13:17:56.334Z,99633.00
2023-02-02T13:20:53.113Z,99643.00
2023-02-02T13:23:42.923Z,99638.00
2023-02-02T13:26:32.497Z,99645.00
2023-02-02T13:29:14.848Z,99630.00
2023-02-02T13:32:30.447Z,99624.00
2023-02-02T13:35:21.509Z,99633.00
2023-02-02T13:38:12.887Z,99637.00
2023-02-02T13:40:44.441Z,99647.00
2023-02-02T13:44:09.210Z,99645.00
2023-02-02T13:47:11.514Z,99634.00
2023-02-02T13:50:00.620Z,99639.00
2023-02-02T13:53:39.632Z,99631.00
2023-02-02T13:57:26.687Z,99640.00
2023-02-02T14:00:14.139Z,99637.00
2023-02-02T14:03:40.984Z,99643.00
2023-02-02T14:06:17.165Z,99633.00
2023-02-02T14:09:04.586Z,99631.00
2023-02-02T14:11:42.567Z,99637.00
2023-02-02T14:14:31.835Z,99643.00
2023-02-02T14:17:15.194Z,99637.00
2023-02-02T14:20:01.640Z,99639.00
2023-02-02T14:22:50.882Z,99642.00
2023-02-02T14:25:33.505Z,99636.00
2023-02-02T14:28:48.164Z,99632.00
2023-02-02T14:31:54.493Z,99631.00
2023-02-02T14:34:40.090Z,99635.00
2023-02-02T14:37:28.224Z,99648.00
2023-02-02T14:40:11.047Z,99651.00
2023-02-02T14:43:45.566Z,99656.00
2023-02-02T14:46:16.056Z,99671.00
2023-02-02T14:49:27.172Z,99664.00
2023-02-02T14:52:02.125Z,99674.00
2023-02-02T14:54:42.283Z,99673.00
2023-02-02T14:57:28.633Z,99676.00
2023-02-02T14:59:59.374Z,99680.00
2023-02-02T15:02:37.536Z,99682.00
2023-02-02T15:05:39.084Z,99700.00
2023-02-02T15:08:24.729Z,99692.00
2023-02-02T15:11:24.464Z,99694.00
2023-02-02T15:14:02.339Z,99679.00
2023-02-02T15:16:31.973Z,99694.00
2023-02-02T15:19:17.078Z,99686.00
2023-02-02T15:21:47.788Z,99687.00
2023-02-02T15:24:28.386Z,99686.00
2023-02-02T15:26:58.429Z,99688.00
